hr.am alexa rank chart, hr.am alexa rank daily changes

hr.am alexa rank chart, hr.am alexa rank daily changes

hr.am
Actual rank:
556 583

RANK HISTORY

Date Rank Diff
2017/07/21 556 583 -13 285
2017/07/20 569 868 -8 852
2017/07/19 578 720 -14 705
2017/07/18 593 425 -13 856
2017/07/17 607 281 -10 813
2017/07/16 618 094 -14 862
2017/07/15 632 956 +805
2017/07/14 632 151 +973
2017/07/13 631 178 -7 290
2017/07/12 638 468 +6 099
2017/07/11 632 369 -2 148
2017/07/10 634 517 -1 266
2017/07/09 635 783 +766
2017/07/08 635 017 +7 389
2017/07/07 627 628 +5 589
2017/07/06 622 039 -8 939
2017/07/05 630 978 +19 684
2017/07/04 611 294 +7 617
2017/07/03 603 677 +8 051
2017/07/02 595 626 +3 725
2017/07/01 591 901 +8 371
2017/06/30 583 530 +6 010
2017/06/29 577 520 +1 376
2017/06/28 576 144 -769
2017/06/27 576 913 +457
2017/06/26 576 456 -1 611
2017/06/25 578 067 -982
2017/06/24 579 049 -4 596
2017/06/23 583 645 -5 648
2017/06/22 589 293 -1 063
2017/06/21 590 356 +14 886
2017/06/20 575 470 +10 941
2017/06/19 564 529 +11 930
2017/06/18 552 599 +10 855
2017/06/17 541 744 +10 394
2017/06/16 531 350 +3 445
2017/06/15 527 905 +1 297
2017/06/14 526 608 +651
2017/06/13 525 957 +4 648
2017/06/12 521 309 +10 615
2017/06/11 510 694 -1 014
2017/06/10 511 708 +4 466
2017/06/09 507 242 -1 349
2017/06/08 508 591 +235
2017/06/07 508 356 +901
2017/06/06 507 455 +12 769
2017/06/05 494 686 -14 276
2017/06/04 508 962 +11 568
2017/06/03 497 394 +4 686
2017/06/02 492 708 -262
2017/06/01 492 970 -900
2017/05/31 493 870 -4 363
2017/05/30 498 233 +9 253
2017/05/29 488 980 -1 902
2017/05/28 490 882 +11 775
2017/05/27 479 107 +3 786
2017/05/26 475 321 +1 852
2017/05/25 473 469 -3 649
2017/05/24 477 118 -2 552
2017/05/23 479 670 -1 968
2017/05/22 481 638

WIDGET FOR YOUR SITE

DOMAINS WITH THE NEAREST RANK

Domain Rank
glamour-seduction.com 556 578
travian.hk 556 579
tracinho.com 556 580
giselebundchen-online.com 556 581
daebakcases.com 556 582
hr.am 556 583
attylaserna.blogspot.com 556 584
wmotors.ae 556 585
coinspace.eu 556 586
scambs.gov.uk 556 587
zoopornvideos.net 556 588

DOMAINS WITH THE NEAREST RANK BY TLD .am

Domain Rank
arka.am 547 743
likestre.am 551 296
mykitchen.am 551 955
careercenter.am 553 129
zvartnots.am 554 923
hr.am 556 583
aeb.am 558 372
fr.am 558 999
rau.am 559 237
itinfo.am 562 318
crossnews.am 563 180